Map

Track Data

SID SEASON NUMBER BASIN SUBBASIN NAME ISO_TIME NATURE LAT LON WMO_WIND WMO_PRES WMO_AGENCY TRACK_TYPE DIST2LAND LANDFALL IFLAG USA_AGENCY USA_ATCF_ID USA_LAT USA_LON USA_RECORD USA_STATUS USA_WIND USA_PRES USA_SSHS USA_R34_NE USA_R34_SE USA_R34_SW USA_R34_NW USA_R50_NE USA_R50_SE USA_R50_SW USA_R50_NW USA_R64_NE USA_R64_SE USA_R64_SW USA_R64_NW USA_POCI USA_ROCI USA_RMW USA_EYE TOKYO_LAT TOKYO_LON TOKYO_GRADE TOKYO_WIND TOKYO_PRES TOKYO_R50_DIR TOKYO_R50_LONG TOKYO_R50_SHORT TOKYO_R30_DIR TOKYO_R30_LONG TOKYO_R30_SHORT TOKYO_LAND CMA_LAT CMA_LON CMA_CAT CMA_WIND CMA_PRES HKO_LAT HKO_LON HKO_CAT HKO_WIND HKO_PRES NEWDELHI_LAT NEWDELHI_LON NEWDELHI_GRADE NEWDELHI_WIND NEWDELHI_PRES NEWDELHI_CI NEWDELHI_DP NEWDELHI_POCI REUNION_LAT REUNION_LON REUNION_TYPE REUNION_WIND REUNION_PRES REUNION_TNUM REUNION_CI REUNION_RMW REUNION_R34_NE REUNION_R34_SE REUNION_R34_SW REUNION_R34_NW REUNION_R50_NE REUNION_R50_SE REUNION_R50_SW REUNION_R50_NW REUNION_R64_NE REUNION_R64_SE REUNION_R64_SW REUNION_R64_NW BOM_LAT BOM_LON BOM_TYPE BOM_WIND BOM_PRES BOM_TNUM BOM_CI BOM_RMW BOM_R34_NE BOM_R34_SE BOM_R34_SW BOM_R34_NW BOM_R50_NE BOM_R50_SE BOM_R50_SW BOM_R50_NW BOM_R64_NE BOM_R64_SE BOM_R64_SW BOM_R64_NW BOM_ROCI BOM_POCI BOM_EYE BOM_POS_METHOD BOM_PRES_METHOD NADI_LAT NADI_LON NADI_CAT NADI_WIND NADI_PRES WELLINGTON_LAT WELLINGTON_LON WELLINGTON_WIND WELLINGTON_PRES DS824_LAT DS824_LON DS824_STAGE DS824_WIND DS824_PRES TD9636_LAT TD9636_LON TD9636_STAGE TD9636_WIND TD9636_PRES TD9635_LAT TD9635_LON TD9635_WIND TD9635_PRES TD9635_ROCI NEUMANN_LAT NEUMANN_LON NEUMANN_CLASS NEUMANN_WIND NEUMANN_PRES MLC_LAT MLC_LON MLC_CLASS MLC_WIND MLC_PRES USA_GUST BOM_GUST BOM_GUST_PER REUNION_GUST REUNION_GUST_PER USA_SEAHGT USA_SEARAD_NE USA_SEARAD_SE USA_SEARAD_SW USA_SEARAD_NW STORM_SPEED STORM_DIR
1936225N07139 1936 35 WP MM NOT_NAMED 1936-08-12 10:00:00 NR 7.20000 139.200 main 968 960 __________O___ -1 7.20000 139.200 4 5 286
1936225N07139 1936 35 WP MM NOT_NAMED 1936-08-12 12:00:00 NR 7.24821 139.030 main 960 963 __________P___ -1 7.24821 139.030 4 6 286
1936225N07139 1936 35 WP MM NOT_NAMED 1936-08-12 15:00:00 NR 7.32741 138.757 main 963 959 __________P___ -1 7.32741 138.757 4 6 287
1936225N07139 1936 35 WP MM NOT_NAMED 1936-08-12 18:00:00 NR 7.42444 138.439 main 959 959 __________P___ -1 7.42444 138.439 4 7 288
1936225N07139 1936 35 WP MM NOT_NAMED 1936-08-12 21:00:00 NR 7.54998 138.050 main 959 964 __________P___ -1 7.54998 138.050 4 8 288
1936225N07139 1936 35 WP MM NOT_NAMED 1936-08-12 22:00:00 NR 7.60000 137.900 main 964 961 __________O___ -1 7.60000 137.900 4 10 289
1936225N07139 1936 35 WP MM NOT_NAMED 1936-08-13 00:00:00 NR 7.71378 137.566 main 967 964 __________P___ -1 7.71378 137.566 4 11 290
1936225N07139 1936 35 WP MM NOT_NAMED 1936-08-13 03:00:00 NR 7.91571 137.001 main 976 974 __________P___ -1 7.91571 137.001 4 12 291
1936225N07139 1936 35 WP MM NOT_NAMED 1936-08-13 06:00:00 NR 8.14948 136.397 main 990 999 __________P___ -1 8.14948 136.397 4 13 292
1936225N07139 1936 35 WP MM NOT_NAMED 1936-08-13 09:00:00 NR 8.40887 135.794 main 1016 995 __________P___ -1 8.40887 135.794 4 13 294
1936225N07139 1936 35 WP MM NOT_NAMED 1936-08-13 10:00:00 NR 8.50000 135.600 main 995 953 __________O___ -1 8.50000 135.600 4 12 295
1936225N07139 1936 35 WP MM NOT_NAMED 1936-08-13 12:00:00 NR 8.65903 135.249 main 953 902 __________P___ -1 8.65903 135.249 4 11 296
1936225N07139 1936 35 WP MM NOT_NAMED 1936-08-13 15:00:00 NR 8.91616 134.742 main 902 853 __________P___ -1 8.91616 134.742 4 11 299
1936225N07139 1936 35 WP MM NOT_NAMED 1936-08-13 18:00:00 NR 9.21225 134.249 main 853 817 __________P___ -1 9.21225 134.249 4 12 304
1936225N07139 1936 35 WP MM NOT_NAMED 1936-08-13 21:00:00 NR 9.56602 133.763 main 820 801 __________P___ -1 9.56602 133.763 4 12 307
1936225N07139 1936 35 WP MM NOT_NAMED 1936-08-13 22:00:00 NR 9.70000 133.600 main 801 776 __________O___ -1 9.70000 133.600 4 13 312
1936225N07139 1936 35 WP MM NOT_NAMED 1936-08-14 00:00:00 NR 10.0010 133.277 main 780 738 __________P___ -1 10.0010 133.277 4 14 315
1936225N07139 1936 35 WP MM NOT_NAMED 1936-08-14 03:00:00 NR 10.5094 132.793 main 738 698 __________P___ -1 10.5094 132.793 4 14 318
1936225N07139 1936 35 WP MM NOT_NAMED 1936-08-14 06:00:00 NR 11.0585 132.298 main 701 658 __________P___ -1 11.0585 132.298 4 15 318
1936225N07139 1936 35 WP MM NOT_NAMED 1936-08-14 09:00:00 NR 11.6171 131.780 main 658 638 __________P___ -1 11.6171 131.780 4 15 317
1936225N07139 1936 35 WP MM NOT_NAMED 1936-08-14 10:00:00 NR 11.8000 131.600 main 638 601 __________O___ -1 11.8000 131.600 4 16 314
1936225N07139 1936 35 WP MM NOT_NAMED 1936-08-14 12:00:00 NR 12.1549 131.207 main 603 556 __________P___ -1 12.1549 131.207 4 16 312
1936225N07139 1936 35 WP MM NOT_NAMED 1936-08-14 15:00:00 NR 12.6813 130.593 main 556 498 __________P___ -1 12.6813 130.593 4 16 311
1936225N07139 1936 35 WP MM NOT_NAMED 1936-08-14 18:00:00 NR 13.1865 129.975 main 501 451 __________P___ -1 13.1865 129.975 4 15 310
1936225N07139 1936 35 WP MM NOT_NAMED 1936-08-14 21:00:00 NR 13.6548 129.385 main 455 439 __________P___ -1 13.6548 129.385 4 15 309
1936225N07139 1936 35 WP MM NOT_NAMED 1936-08-14 22:00:00 NR 13.8000 129.200 main 439 419 __________O___ -1 13.8000 129.200 4 13 309
1936225N07139 1936 35 WP MM NOT_NAMED 1936-08-15 00:00:00 NR 14.0617 128.870 main 425 399 __________P___ -1 14.0617 128.870 4 12 309
1936225N07139 1936 35 WP MM NOT_NAMED 1936-08-15 03:00:00 NR 14.4168 128.414 main 399 389 __________P___ -1 14.4168 128.414 4 11 309
1936225N07139 1936 35 WP MM NOT_NAMED 1936-08-15 06:00:00 NR 14.7491 127.982 main 389 359 __________P___ -1 14.7491 127.982 4 11 309
1936225N07139 1936 35 WP MM NOT_NAMED 1936-08-15 09:00:00 NR 15.0837 127.549 main 359 354 __________P___ -1 15.0837 127.549 4 11 309
1936225N07139 1936 35 WP MM NOT_NAMED 1936-08-15 10:00:00 NR 15.2000 127.400 main 354 335 __________O___ -1 15.2000 127.400 4 11 311
1936225N07139 1936 35 WP MM NOT_NAMED 1936-08-15 12:00:00 NR 15.4546 127.104 main 341 318 __________P___ -1 15.4546 127.104 4 12 312
1936225N07139 1936 35 WP MM NOT_NAMED 1936-08-15 15:00:00 NR 15.8494 126.647 main 318 317 __________P___ -1 15.8494 126.647 4 12 311
1936225N07139 1936 35 WP MM NOT_NAMED 1936-08-15 18:00:00 NR 16.2544 126.155 main 328 315 __________P___ -1 16.2544 126.155 4 13 309
1936225N07139 1936 35 WP MM NOT_NAMED 1936-08-15 21:00:00 NR 16.6637 125.602 main 330 308 __________P___ -1 16.6637 125.602 4 14 307
1936225N07139 1936 35 WP MM NOT_NAMED 1936-08-15 22:00:00 NR 16.8000 125.400 main 308 265 __________O___ -1 16.8000 125.400 4 15 304
1936225N07139 1936 35 WP MM NOT_NAMED 1936-08-16 00:00:00 NR 17.0718 124.970 main 266 196 __________P___ -1 17.0718 124.970 4 15 302
1936225N07139 1936 35 WP MM NOT_NAMED 1936-08-16 03:00:00 NR 17.4795 124.262 main 199 134 __________P___ -1 17.4795 124.262 4 16 300
1936225N07139 1936 35 WP MM NOT_NAMED 1936-08-16 06:00:00 NR 17.8818 123.493 main 134 42 __________P___ -1 17.8818 123.493 4 17 298
1936225N07139 1936 35 WP MM NOT_NAMED 1936-08-16 09:00:00 NR 18.2731 122.679 main 42 10 __________P___ -1 18.2731 122.679 4 17 297
1936225N07139 1936 35 WP MM NOT_NAMED 1936-08-16 10:00:00 NR 18.4000 122.400 main 10 0 __________O___ -1 18.4000 122.400 4 18 295
1936225N07139 1936 35 WP MM NOT_NAMED 1936-08-16 12:00:00 NR 18.6555 121.827 main 39 30 __________P___ -1 18.6555 121.827 4 18 294
1936225N07139 1936 35 WP MM NOT_NAMED 1936-08-16 15:00:00 NR 19.0264 120.935 main 44 44 __________P___ -1 19.0264 120.935 4 18 293
1936225N07139 1936 35 WP MM NOT_NAMED 1936-08-16 18:00:00 NR 19.3764 120.039 main 122 122 __________P___ -1 19.3764 120.039 4 18 292
1936225N07139 1936 35 WP MM NOT_NAMED 1936-08-16 21:00:00 NR 19.6994 119.174 main 206 214 __________P___ -1 19.6994 119.174 4 17 292
1936225N07139 1936 35 WP MM NOT_NAMED 1936-08-16 22:00:00 NR 19.8000 118.900 main 237 237 __________O___ -1 19.8000 118.900 4 16 292
1936225N07139 1936 35 WP MM NOT_NAMED 1936-08-17 00:00:00 NR 19.9931 118.398 main 292 292 __________P___ -1 19.9931 118.398 4 15 292
1936225N07139 1936 35 WP MM NOT_NAMED 1936-08-17 03:00:00 NR 20.2589 117.689 main 316 273 __________P___ -1 20.2589 117.689 4 14 291
1936225N07139 1936 35 WP MM NOT_NAMED 1936-08-17 06:00:00 NR 20.5017 117.010 main 273 229 __________P___ -1 20.5017 117.010 4 14 290
1936225N07139 1936 35 WP MM NOT_NAMED 1936-08-17 09:00:00 NR 20.7275 116.331 main 229 214 __________P___ -1 20.7275 116.331 4 14 289
1936225N07139 1936 35 WP MM NOT_NAMED 1936-08-17 10:00:00 NR 20.8000 116.100 main 214 192 __________O___ -1 20.8000 116.100 4 14 288
1936225N07139 1936 35 WP MM NOT_NAMED 1936-08-17 12:00:00 NR 20.9417 115.626 main 192 147 __________P___ -1 20.9417 115.626 4 14 287
1936225N07139 1936 35 WP MM NOT_NAMED 1936-08-17 15:00:00 NR 21.1470 114.890 main 147 111 __________P___ -1 21.1470 114.890 4 15 286
1936225N07139 1936 35 WP MM NOT_NAMED 1936-08-17 18:00:00 NR 21.3450 114.132 main 113 60 __________P___ -1 21.3450 114.132 4 15 285
1936225N07139 1936 35 WP MM NOT_NAMED 1936-08-17 21:00:00 NR 21.5370 113.359 main 60 35 __________P___ -1 21.5370 113.359 4 15 285
1936225N07139 1936 35 WP MM NOT_NAMED 1936-08-17 22:00:00 NR 21.6000 113.100 main 35 __________O___ -1 21.6000 113.100 4 15 285

Digital Typhoon Data and Search

About IBTrACS Database

This database is a web-friendly format of International Best Track Archive for Climate Stewardship (IBTrACS), a global best track data archive curated by NOAA dating back to 1842.

Updated: 2021-12-01